createdAt,value
2022-08-25T00:00:23.290Z,11.60
2022-08-25T00:02:55.203Z,11.20
2022-08-25T00:05:29.251Z,11.32
2022-08-25T00:08:01.494Z,11.53
2022-08-25T00:10:31.975Z,11.35
2022-08-25T00:13:01.583Z,11.07
2022-08-25T00:15:32.311Z,11.48
2022-08-25T00:18:02.866Z,11.90
2022-08-25T00:20:32.430Z,11.03
2022-08-25T00:23:01.702Z,11.57
2022-08-25T00:25:31.482Z,12.27
2022-08-25T00:28:04.071Z,11.93
2022-08-25T00:30:36.902Z,11.20
2022-08-25T00:33:07.341Z,11.63
2022-08-25T00:35:38.464Z,11.25
2022-08-25T00:38:07.756Z,11.10
2022-08-25T00:40:37.323Z,11.50
2022-08-25T00:43:06.677Z,10.80
2022-08-25T00:45:37.486Z,11.43
2022-08-25T00:48:07.190Z,10.48
2022-08-25T00:50:37.655Z,11.48
2022-08-25T00:53:07.882Z,10.40
2022-08-25T00:55:41.059Z,11.82
2022-08-25T00:58:16.843Z,10.97
2022-08-25T01:00:50.161Z,11.35
2022-08-25T01:03:21.846Z,10.60
2022-08-25T01:05:56.511Z,10.77
2022-08-25T01:08:29.172Z,11.38
2022-08-25T01:11:01.366Z,10.77
2022-08-25T01:13:38.841Z,10.60
2022-08-25T01:16:08.277Z,10.70
2022-08-25T01:18:50.603Z,10.68
2022-08-25T01:21:21.404Z,10.85
2022-08-25T01:23:51.306Z,10.20
2022-08-25T01:26:30.193Z,11.02
2022-08-25T01:29:14.929Z,10.73
2022-08-25T01:31:45.217Z,11.20
2022-08-25T01:34:15.775Z,10.90
2022-08-25T01:36:46.417Z,11.30
2022-08-25T01:39:16.343Z,10.57
2022-08-25T01:41:51.611Z,11.10
2022-08-25T01:44:21.283Z,11.05
2022-08-25T01:46:50.588Z,10.85
2022-08-25T01:49:19.909Z,11.43
2022-08-25T01:52:19.726Z,11.15
2022-08-25T01:54:50.697Z,10.75
2022-08-25T01:57:20.101Z,10.90
2022-08-25T01:59:49.497Z,10.13
2022-08-25T02:02:18.951Z,11.17
2022-08-25T02:04:48.754Z,11.60
2022-08-25T02:07:20.134Z,11.68
2022-08-25T02:09:49.784Z,11.88
2022-08-25T02:12:21.099Z,11.35
2022-08-25T02:14:50.393Z,11.30
2022-08-25T02:17:19.800Z,10.38
2022-08-25T02:19:49.084Z,10.77
2022-08-25T02:22:18.981Z,10.95
2022-08-25T02:24:48.278Z,11.73
2022-08-25T02:27:17.665Z,11.07
2022-08-25T02:29:47.404Z,10.85
2022-08-25T02:32:16.814Z,11.02
2022-08-25T02:34:46.129Z,11.05
2022-08-25T02:37:15.418Z,11.85
2022-08-25T02:39:45.161Z,11.23
2022-08-25T02:42:14.751Z,10.77
2022-08-25T02:44:44.312Z,11.98
2022-08-25T02:47:13.593Z,11.15
2022-08-25T02:49:48.513Z,12.07
2022-08-25T02:52:18.723Z,10.63
2022-08-25T02:54:48.077Z,10.75
2022-08-25T02:57:18.192Z,11.38
2022-08-25T02:59:48.547Z,11.95
2022-08-25T03:02:19.316Z,10.70
2022-08-25T03:04:48.726Z,10.40
2022-08-25T03:07:18.080Z,10.52
2022-08-25T03:09:50.185Z,11.27
2022-08-25T03:12:22.661Z,11.00
2022-08-25T03:14:51.954Z,10.93
2022-08-25T03:17:21.190Z,10.47
2022-08-25T03:19:51.526Z,11.05
2022-08-25T03:22:21.349Z,12.20
2022-08-25T03:24:50.945Z,11.25
2022-08-25T03:27:18.146Z,11.13
2022-08-25T03:29:48.406Z,11.03
2022-08-25T03:32:18.062Z,11.40
2022-08-25T03:34:47.435Z,10.52
2022-08-25T03:37:16.706Z,11.27
2022-08-25T03:39:46.250Z,11.57
2022-08-25T03:42:15.527Z,11.00
2022-08-25T03:44:45.054Z,10.75
2022-08-25T03:47:14.383Z,11.55
2022-08-25T03:49:43.762Z,12.32
2022-08-25T03:52:13.167Z,12.05
2022-08-25T03:54:42.498Z,11.03
2022-08-25T03:57:11.788Z,11.18
2022-08-25T03:59:41.099Z,10.82
2022-08-25T04:02:10.943Z,11.07
2022-08-25T04:04:40.951Z,11.45
2022-08-25T04:07:10.216Z,11.50
2022-08-25T04:09:39.620Z,11.10
2022-08-25T04:12:08.996Z,11.10
2022-08-25T04:14:38.346Z,11.18
2022-08-25T04:17:08.577Z,10.43
2022-08-25T04:19:38.706Z,10.47
2022-08-25T04:22:08.051Z,10.88
2022-08-25T04:24:37.379Z,11.25
2022-08-25T04:27:07.156Z,11.45
2022-08-25T04:29:36.535Z,11.60
2022-08-25T04:32:06.168Z,11.23
2022-08-25T04:34:35.563Z,11.27
2022-08-25T04:37:07.994Z,10.98
2022-08-25T04:39:38.070Z,10.07
2022-08-25T04:42:07.807Z,10.48
2022-08-25T04:44:37.053Z,10.90
2022-08-25T04:47:06.425Z,11.50
2022-08-25T04:49:35.703Z,11.18
2022-08-25T04:52:04.983Z,11.23
2022-08-25T04:54:42.268Z,12.55
2022-08-25T04:57:11.627Z,12.63
2022-08-25T04:59:40.978Z,12.00
2022-08-25T05:02:10.429Z,11.70
2022-08-25T05:04:40.095Z,12.25
2022-08-25T05:07:09.418Z,15.10
2022-08-25T05:09:38.729Z,13.13
2022-08-25T05:12:08.219Z,11.57
2022-08-25T05:14:39.802Z,12.38
2022-08-25T05:17:10.422Z,11.95
2022-08-25T05:19:39.897Z,13.93
2022-08-25T05:22:09.229Z,13.30
2022-08-25T05:24:38.656Z,12.27
2022-08-25T05:27:11.170Z,12.13
2022-08-25T05:29:40.475Z,11.70
2022-08-25T05:32:10.213Z,12.55
2022-08-25T05:34:39.590Z,12.80
2022-08-25T05:37:12.087Z,13.60
2022-08-25T05:39:41.541Z,12.85
2022-08-25T05:42:10.901Z,12.23
2022-08-25T05:44:40.178Z,12.20
2022-08-25T05:47:09.535Z,12.10
2022-08-25T05:49:38.807Z,12.50
2022-08-25T05:52:13.337Z,13.00
2022-08-25T05:54:48.486Z,12.90
2022-08-25T05:57:17.968Z,12.55
2022-08-25T05:59:47.445Z,12.60
2022-08-25T06:02:29.224Z,12.30
2022-08-25T06:04:58.890Z,12.88
2022-08-25T06:07:28.257Z,12.95
2022-08-25T06:09:57.547Z,13.32
2022-08-25T06:12:26.883Z,12.37
2022-08-25T06:14:56.168Z,12.18
2022-08-25T06:17:25.479Z,13.00
2022-08-25T06:19:56.548Z,13.20
2022-08-25T06:22:26.251Z,13.38
2022-08-25T06:24:55.764Z,12.80
2022-08-25T06:27:25.118Z,13.27
2022-08-25T06:29:56.107Z,12.93
2022-08-25T06:32:26.893Z,14.45
2022-08-25T06:34:56.256Z,13.80
2022-08-25T06:37:25.570Z,13.77
2022-08-25T06:39:54.918Z,15.18
2022-08-25T06:42:24.465Z,13.93
2022-08-25T06:44:53.916Z,15.07
2022-08-25T06:47:23.667Z,14.75
2022-08-25T06:49:53.052Z,14.67
2022-08-25T06:52:22.649Z,16.05
2022-08-25T06:54:58.648Z,14.10
2022-08-25T06:57:28.044Z,14.15
2022-08-25T06:59:57.575Z,15.00
2022-08-25T07:02:27.045Z,14.37
2022-08-25T07:04:58.667Z,14.00
2022-08-25T07:07:27.983Z,13.35
2022-08-25T07:10:13.101Z,12.07
2022-08-25T07:12:43.169Z,13.55
2022-08-25T07:15:21.001Z,12.27
2022-08-25T07:18:02.435Z,11.82
2022-08-25T07:20:37.682Z,12.77
2022-08-25T07:23:07.444Z,12.27
2022-08-25T07:25:39.687Z,11.90
2022-08-25T07:28:09.312Z,12.37
2022-08-25T07:30:39.912Z,11.52
2022-08-25T07:33:09.414Z,12.13
2022-08-25T07:35:37.895Z,10.65
2022-08-25T07:38:16.672Z,10.35
2022-08-25T07:40:54.845Z,10.30
2022-08-25T07:43:26.346Z,9.98
2022-08-25T07:45:56.000Z,10.88
2022-08-25T07:48:25.824Z,9.68
2022-08-25T07:50:55.083Z,10.35
2022-08-25T07:53:25.631Z,10.30
2022-08-25T07:55:54.955Z,9.68
2022-08-25T07:58:24.333Z,9.32
2022-08-25T08:00:53.907Z,7.80
2022-08-25T08:03:44.757Z,9.00
2022-08-25T08:06:15.418Z,8.67
2022-08-25T08:08:46.351Z,8.07
2022-08-25T08:11:27.379Z,9.00
2022-08-25T08:13:58.212Z,9.20
2022-08-25T08:16:30.806Z,8.18
2022-08-25T08:19:00.926Z,8.60
2022-08-25T08:21:33.123Z,8.90
2022-08-25T08:24:05.090Z,8.15
2022-08-25T08:26:57.415Z,8.65
2022-08-25T08:29:27.973Z,8.77
2022-08-25T08:31:57.278Z,7.97
2022-08-25T08:34:27.738Z,8.48
2022-08-25T08:36:57.149Z,8.07
2022-08-25T08:39:26.906Z,8.68
2022-08-25T08:42:22.064Z,8.25
2022-08-25T08:45:09.488Z,8.33
2022-08-25T08:48:01.456Z,7.78
2022-08-25T08:50:55.702Z,7.90
2022-08-25T08:53:34.211Z,7.97
2022-08-25T08:56:11.671Z,8.73
2022-08-25T08:58:51.521Z,7.30
2022-08-25T09:01:29.836Z,7.63
2022-08-25T09:04:08.724Z,7.32
2022-08-25T09:06:45.000Z,6.93
2022-08-25T09:09:23.598Z,7.90
2022-08-25T09:12:31.586Z,7.23
2022-08-25T09:15:13.926Z,7.13
2022-08-25T09:17:54.847Z,8.20
2022-08-25T09:20:44.941Z,7.57
2022-08-25T09:23:47.380Z,7.85
2022-08-25T09:26:38.466Z,7.10
2022-08-25T09:29:16.312Z,7.20
2022-08-25T09:31:46.564Z,7.72
2022-08-25T09:34:23.443Z,6.75
2022-08-25T09:36:53.509Z,7.05
2022-08-25T09:39:24.086Z,6.97
2022-08-25T09:42:00.366Z,7.25
2022-08-25T09:44:31.288Z,6.65
2022-08-25T09:47:04.633Z,6.70
2022-08-25T09:49:45.702Z,6.65
2022-08-25T09:52:25.982Z,6.10
2022-08-25T09:54:59.915Z,6.55
2022-08-25T09:57:49.236Z,7.13
2022-08-25T10:00:22.565Z,6.28
2022-08-25T10:03:22.735Z,6.28
2022-08-25T10:06:07.905Z,6.37
2022-08-25T10:08:58.701Z,5.80
2022-08-25T10:11:38.269Z,6.57
2022-08-25T10:14:24.830Z,6.47
2022-08-25T10:16:54.696Z,6.25
2022-08-25T10:19:30.296Z,6.10
2022-08-25T10:22:32.558Z,5.32
2022-08-25T10:25:04.588Z,5.75
2022-08-25T10:27:42.659Z,5.70
2022-08-25T10:30:15.307Z,6.90
2022-08-25T10:33:07.238Z,6.27
2022-08-25T10:35:45.686Z,5.95
2022-08-25T10:38:36.632Z,5.85
2022-08-25T10:41:36.956Z,5.20
2022-08-25T10:44:35.665Z,6.82
2022-08-25T10:47:36.102Z,5.83
2022-08-25T10:50:10.070Z,5.40
2022-08-25T10:53:18.359Z,6.10
2022-08-25T10:56:07.301Z,6.00
2022-08-25T10:59:14.361Z,5.85
2022-08-25T11:02:22.329Z,5.40
2022-08-25T11:05:10.223Z,5.43
2022-08-25T11:07:45.291Z,6.50
2022-08-25T11:10:18.954Z,5.53
2022-08-25T11:13:43.666Z,6.38
2022-08-25T11:16:20.294Z,5.33
2022-08-25T11:18:55.149Z,5.55
2022-08-25T11:21:51.376Z,5.50
2022-08-25T11:24:42.378Z,5.68
2022-08-25T11:27:21.703Z,6.72
2022-08-25T11:30:03.383Z,6.00
2022-08-25T11:32:36.219Z,4.30
2022-08-25T11:35:12.134Z,5.70
2022-08-25T11:37:57.149Z,5.10
2022-08-25T11:40:55.777Z,5.32
2022-08-25T11:44:02.790Z,6.03
2022-08-25T11:46:55.427Z,4.75
2022-08-25T11:49:37.537Z,6.47
2022-08-25T11:52:32.375Z,5.18
2022-08-25T11:55:23.176Z,6.18
2022-08-25T11:57:54.709Z,5.27
2022-08-25T12:00:36.845Z,5.38
2022-08-25T12:03:35.605Z,5.53
2022-08-25T12:06:29.674Z,5.45
2022-08-25T12:09:05.551Z,5.60
2022-08-25T12:11:41.708Z,4.77
2022-08-25T12:14:29.485Z,5.65
2022-08-25T12:17:00.377Z,5.28
2022-08-25T12:19:38.130Z,6.00
2022-08-25T12:22:07.324Z,4.82
2022-08-25T12:24:48.116Z,5.13
2022-08-25T12:27:28.766Z,5.95
2022-08-25T12:30:18.552Z,5.13
2022-08-25T12:33:05.810Z,4.10
2022-08-25T12:35:41.155Z,5.00
2022-08-25T12:38:18.408Z,4.73
2022-08-25T12:40:47.838Z,5.85
2022-08-25T12:43:24.781Z,6.45
2022-08-25T12:45:56.301Z,5.93
2022-08-25T12:48:29.487Z,5.97
2022-08-25T12:51:03.675Z,5.50
2022-08-25T12:53:47.323Z,5.15
2022-08-25T12:56:39.480Z,4.97
2022-08-25T12:59:21.923Z,5.25
2022-08-25T13:02:19.254Z,4.80
2022-08-25T13:05:17.067Z,5.03
2022-08-25T13:08:16.612Z,5.45
2022-08-25T13:10:51.596Z,4.90
2022-08-25T13:13:39.522Z,5.05
2022-08-25T13:16:11.902Z,5.10
2022-08-25T13:18:41.970Z,5.00
2022-08-25T13:21:20.343Z,5.63
2022-08-25T13:23:54.022Z,5.93
2022-08-25T13:26:35.211Z,5.60
2022-08-25T13:29:17.965Z,5.88
2022-08-25T13:31:57.581Z,5.53
2022-08-25T13:34:35.126Z,5.13
2022-08-25T13:37:29.805Z,5.28
2022-08-25T13:40:17.644Z,6.78
2022-08-25T13:42:55.461Z,5.03
2022-08-25T13:45:28.497Z,5.23
2022-08-25T13:47:59.977Z,5.93
2022-08-25T13:50:29.253Z,5.15
2022-08-25T13:53:11.405Z,5.22
2022-08-25T13:55:51.392Z,5.88
2022-08-25T13:58:39.058Z,5.47
2022-08-25T14:01:23.240Z,5.35
2022-08-25T14:04:31.992Z,5.43
2022-08-25T14:07:34.099Z,4.78
2022-08-25T14:10:31.556Z,5.40
2022-08-25T14:13:38.697Z,5.63
2022-08-25T14:16:32.788Z,5.32
2022-08-25T14:19:04.551Z,5.03
2022-08-25T14:21:35.566Z,5.88
2022-08-25T14:24:11.065Z,6.07
2022-08-25T14:26:40.425Z,5.20
2022-08-25T14:29:24.858Z,5.53
2022-08-25T14:31:54.315Z,6.00
2022-08-25T14:34:29.166Z,5.80
2022-08-25T14:37:00.053Z,5.80
2022-08-25T14:39:29.936Z,5.20
2022-08-25T14:41:59.263Z,5.22
2022-08-25T14:44:28.587Z,4.60
2022-08-25T14:46:59.547Z,5.70
2022-08-25T14:49:33.755Z,5.43
2022-08-25T14:52:30.510Z,5.30
2022-08-25T14:54:59.962Z,5.47
2022-08-25T14:57:32.290Z,5.78
2022-08-25T15:00:01.567Z,5.38
2022-08-25T15:02:35.280Z,5.93
2022-08-25T15:05:12.769Z,5.13
2022-08-25T15:07:55.391Z,4.95
2022-08-25T15:10:24.882Z,6.38
2022-08-25T15:12:54.823Z,5.18
2022-08-25T15:15:26.496Z,5.45
2022-08-25T15:17:57.039Z,5.23
2022-08-25T15:20:29.205Z,5.22
2022-08-25T15:22:58.504Z,5.35
2022-08-25T15:25:27.865Z,4.78
2022-08-25T15:27:57.249Z,5.20
2022-08-25T15:30:30.983Z,5.30
2022-08-25T15:33:00.771Z,4.80
2022-08-25T15:35:30.634Z,5.72
2022-08-25T15:38:00.171Z,4.82
2022-08-25T15:40:30.996Z,5.68
2022-08-25T15:43:00.906Z,5.20
2022-08-25T15:45:30.288Z,5.85
2022-08-25T15:48:00.115Z,5.53
2022-08-25T15:50:33.356Z,5.63
2022-08-25T15:53:02.789Z,5.38
2022-08-25T15:55:33.235Z,4.70
2022-08-25T15:58:05.358Z,5.43
2022-08-25T16:00:34.658Z,4.45
2022-08-25T16:03:07.589Z,5.53
2022-08-25T16:05:47.976Z,4.75
2022-08-25T16:08:19.565Z,5.00
2022-08-25T16:10:49.782Z,5.57
2022-08-25T16:13:19.313Z,5.20
2022-08-25T16:15:54.353Z,5.82
2022-08-25T16:18:25.616Z,5.00
2022-08-25T16:20:57.904Z,4.70
2022-08-25T16:23:27.919Z,5.38
2022-08-25T16:25:57.239Z,5.97
2022-08-25T16:28:39.086Z,5.43
2022-08-25T16:31:15.031Z,5.03
2022-08-25T16:33:46.359Z,5.13
2022-08-25T16:36:25.004Z,4.95
2022-08-25T16:38:57.681Z,5.32
2022-08-25T16:41:34.072Z,5.68
2022-08-25T16:44:07.815Z,5.43
2022-08-25T16:46:42.088Z,5.47
2022-08-25T16:49:14.484Z,5.03
2022-08-25T16:51:45.380Z,5.13
2022-08-25T16:54:29.568Z,6.78
2022-08-25T16:57:00.787Z,5.47
2022-08-25T16:59:30.174Z,6.00
2022-08-25T17:01:59.473Z,6.15
2022-08-25T17:04:32.178Z,6.47
2022-08-25T17:07:02.409Z,5.50
2022-08-25T17:09:32.572Z,5.43
2022-08-25T17:12:05.061Z,5.20
2022-08-25T17:14:35.195Z,5.63
2022-08-25T17:17:07.150Z,5.55
2022-08-25T17:19:36.721Z,5.13
2022-08-25T17:22:06.194Z,5.63
2022-08-25T17:24:36.690Z,5.17
2022-08-25T17:27:09.925Z,4.82
2022-08-25T17:29:43.823Z,6.32
2022-08-25T17:32:13.151Z,5.50
2022-08-25T17:34:43.842Z,5.05
2022-08-25T17:37:13.283Z,5.03
2022-08-25T17:39:43.771Z,5.65
2022-08-25T17:42:13.557Z,6.32
2022-08-25T17:44:44.236Z,5.22
2022-08-25T17:47:14.007Z,5.20
2022-08-25T17:49:43.575Z,5.70
2022-08-25T17:52:13.256Z,5.45
2022-08-25T17:54:42.880Z,6.63
2022-08-25T17:57:12.580Z,5.10
2022-08-25T17:59:42.431Z,5.38
2022-08-25T18:02:12.214Z,5.33
2022-08-25T18:04:41.795Z,5.00
2022-08-25T18:07:30.410Z,6.28
2022-08-25T18:10:20.232Z,5.35
2022-08-25T18:12:49.608Z,5.75
2022-08-25T18:15:19.917Z,5.23
2022-08-25T18:17:51.076Z,5.72
2022-08-25T18:20:20.942Z,5.85
2022-08-25T18:22:50.302Z,5.13
2022-08-25T18:25:20.032Z,5.30
2022-08-25T18:27:49.971Z,5.33
2022-08-25T18:30:19.414Z,5.82
2022-08-25T18:32:48.774Z,6.65
2022-08-25T18:35:21.317Z,5.38
2022-08-25T18:38:03.661Z,5.57
2022-08-25T18:40:34.417Z,5.40
2022-08-25T18:43:07.075Z,5.65
2022-08-25T18:45:43.194Z,5.53
2022-08-25T18:48:12.972Z,5.95
2022-08-25T18:50:44.727Z,5.68
2022-08-25T18:53:15.694Z,6.40
2022-08-25T18:55:47.086Z,5.32
2022-08-25T18:58:16.984Z,5.53
2022-08-25T19:00:46.682Z,5.60
2022-08-25T19:03:17.635Z,5.88
2022-08-25T19:05:49.438Z,5.93
2022-08-25T19:08:27.288Z,7.10
2022-08-25T19:10:56.660Z,5.85
2022-08-25T19:13:26.148Z,6.30
2022-08-25T19:15:55.546Z,6.40
2022-08-25T19:18:28.864Z,5.80
2022-08-25T19:20:59.254Z,7.40
2022-08-25T19:23:28.933Z,6.35
2022-08-25T19:26:01.087Z,5.63
2022-08-25T19:28:33.218Z,6.75
2022-08-25T19:31:04.309Z,6.13
2022-08-25T19:33:44.053Z,6.53
2022-08-25T19:36:15.652Z,6.05
2022-08-25T19:38:46.516Z,9.95
2022-08-25T19:41:16.130Z,7.00
2022-08-25T19:43:56.657Z,5.97
2022-08-25T19:46:35.609Z,5.97
2022-08-25T19:49:26.301Z,6.50
2022-08-25T19:51:58.242Z,6.90
2022-08-25T19:54:33.939Z,6.57
2022-08-25T19:57:03.419Z,6.20
2022-08-25T19:59:42.956Z,5.68
2022-08-25T20:02:18.739Z,7.20
2022-08-25T20:04:50.816Z,6.95
2022-08-25T20:07:23.743Z,6.72
2022-08-25T20:09:54.741Z,6.73
2022-08-25T20:12:25.757Z,6.22
2022-08-25T20:14:56.589Z,7.60
2022-08-25T20:17:28.488Z,7.10
2022-08-25T20:20:00.291Z,6.93
2022-08-25T20:22:31.653Z,7.17
2022-08-25T20:25:01.854Z,6.72
2022-08-25T20:27:37.146Z,8.77
2022-08-25T20:30:10.761Z,6.80
2022-08-25T20:32:40.205Z,7.40
2022-08-25T20:35:13.074Z,6.73
2022-08-25T20:37:44.058Z,8.05
2022-08-25T20:40:16.179Z,7.47
2022-08-25T20:42:46.269Z,7.95
2022-08-25T20:45:17.719Z,7.05
2022-08-25T20:47:47.036Z,8.10
2022-08-25T20:50:16.797Z,7.82
2022-08-25T20:52:46.254Z,7.47
2022-08-25T20:55:18.918Z,7.78
2022-08-25T20:57:48.583Z,7.53
2022-08-25T21:00:19.534Z,6.37
2022-08-25T21:02:54.298Z,8.70
2022-08-25T21:05:23.652Z,7.70
2022-08-25T21:07:52.919Z,7.15
2022-08-25T21:10:22.329Z,6.90
2022-08-25T21:12:53.390Z,7.07
2022-08-25T21:15:23.004Z,7.00
2022-08-25T21:17:56.210Z,7.43
2022-08-25T21:20:26.406Z,7.70
2022-08-25T21:22:56.080Z,7.22
2022-08-25T21:25:26.260Z,7.27
2022-08-25T21:27:55.634Z,7.72
2022-08-25T21:30:27.578Z,6.93
2022-08-25T21:32:57.858Z,6.75
2022-08-25T21:35:27.136Z,11.65
2022-08-25T21:37:56.474Z,7.73
2022-08-25T21:40:25.900Z,7.60
2022-08-25T21:42:55.560Z,7.88
2022-08-25T21:45:24.894Z,8.10
2022-08-25T21:47:54.212Z,7.32
2022-08-25T21:50:24.083Z,7.33
2022-08-25T21:52:54.875Z,7.40
2022-08-25T21:55:24.482Z,7.40
2022-08-25T21:57:54.827Z,7.60
2022-08-25T22:00:25.191Z,7.63
2022-08-25T22:02:54.935Z,8.20
2022-08-25T22:05:24.224Z,7.38
2022-08-25T22:07:53.560Z,7.93
2022-08-25T22:10:23.874Z,7.93
2022-08-25T22:12:53.185Z,7.18
2022-08-25T22:15:23.355Z,7.27
2022-08-25T22:17:53.144Z,7.18
2022-08-25T22:20:22.633Z,8.15
2022-08-25T22:22:52.238Z,8.52
2022-08-25T22:25:23.711Z,8.38
2022-08-25T22:27:56.880Z,8.27
2022-08-25T22:30:29.401Z,7.63
2022-08-25T22:32:59.651Z,7.97
2022-08-25T22:35:29.149Z,7.53
2022-08-25T22:37:58.408Z,9.02
2022-08-25T22:40:28.235Z,7.30
2022-08-25T22:42:58.581Z,7.57
2022-08-25T22:45:28.427Z,8.77
2022-08-25T22:47:57.980Z,9.38
2022-08-25T22:50:27.840Z,7.68
2022-08-25T22:52:57.685Z,8.63
2022-08-25T22:55:28.172Z,7.53
2022-08-25T22:57:58.306Z,8.25
2022-08-25T23:00:27.692Z,8.82
2022-08-25T23:02:58.033Z,8.05
2022-08-25T23:05:27.414Z,7.43
2022-08-25T23:07:57.444Z,8.07
2022-08-25T23:10:27.413Z,7.88
2022-08-25T23:12:56.795Z,8.38
2022-08-25T23:15:26.562Z,8.52
2022-08-25T23:17:55.837Z,7.47
2022-08-25T23:20:37.992Z,7.97
2022-08-25T23:23:14.606Z,8.77
2022-08-25T23:25:44.143Z,8.30
2022-08-25T23:28:14.197Z,8.15
2022-08-25T23:30:44.781Z,7.37
2022-08-25T23:33:15.664Z,8.73
2022-08-25T23:35:49.492Z,8.15
2022-08-25T23:38:18.895Z,9.20
2022-08-25T23:40:48.177Z,8.10
2022-08-25T23:43:17.512Z,7.67
2022-08-25T23:45:47.347Z,8.10
2022-08-25T23:48:18.780Z,9.20
2022-08-25T23:50:54.090Z,7.68
2022-08-25T23:53:24.296Z,7.35
2022-08-25T23:55:55.032Z,7.87
2022-08-25T23:58:25.267Z,8.57
